createdAt,value
2022-11-06T00:02:43.925Z,60.90464
2022-11-06T00:07:45.635Z,62.58073
2022-11-06T00:12:47.294Z,69.54905
2022-11-06T00:17:48.957Z,72.28438
2022-11-06T00:22:50.583Z,72.99597
2022-11-06T00:27:52.811Z,69.66514
2022-11-06T00:32:54.522Z,74.54172
2022-11-06T00:37:56.221Z,74.1344
2022-11-06T00:42:58.054Z,75.08887
2022-11-06T00:47:59.758Z,70.2522
2022-11-06T00:53:01.548Z,73.28093
2022-11-06T00:58:03.167Z,74.58479
2022-11-06T01:03:04.999Z,74.91844
2022-11-06T01:08:06.767Z,74.66993
2022-11-06T01:13:08.399Z,70.49469
2022-11-06T01:18:10.368Z,69.6254
2022-11-06T01:23:12.216Z,67.44246
2022-11-06T01:28:14.245Z,67.53582
2022-11-06T01:33:15.969Z,69.80137
2022-11-06T01:38:17.693Z,71.44164
2022-11-06T01:43:19.395Z,68.01192
2022-11-06T01:48:21.074Z,68.60139
2022-11-06T01:53:22.709Z,66.57469
2022-11-06T01:58:24.304Z,67.02091
2022-11-06T02:03:25.959Z,73.79004
2022-11-06T02:08:27.640Z,72.43628
2022-11-06T02:13:29.276Z,71.51374
2022-11-06T02:18:30.908Z,68.92549
2022-11-06T02:23:32.525Z,69.24519
2022-11-06T02:28:34.353Z,68.14745
2022-11-06T02:33:36.202Z,67.05881
2022-11-06T02:38:37.936Z,67.51867
2022-11-06T02:43:39.922Z,68.60831
2022-11-06T02:48:41.619Z,69.71773
2022-11-06T02:53:43.294Z,70.73631
2022-11-06T02:58:49.040Z,71.23104
2022-11-06T03:03:51.319Z,67.86241
2022-11-06T03:09:02.034Z,69.00997
2022-11-06T03:14:03.695Z,70.94247
2022-11-06T03:19:05.732Z,69.02698
2022-11-06T03:24:07.427Z,68.75735
2022-11-06T03:29:09.054Z,73.509
2022-11-06T03:34:10.851Z,71.13994
2022-11-06T03:39:12.879Z,69.43523
2022-11-06T03:44:14.552Z,70.48444
2022-11-06T03:49:16.170Z,69.19418
2022-11-06T03:54:17.850Z,68.77285
2022-11-06T03:59:19.628Z,71.19477
2022-11-06T04:04:21.418Z,69.02618
2022-11-06T04:09:23.067Z,67.86714
2022-11-06T04:14:24.747Z,70.03504
2022-11-06T04:19:26.463Z,70.84236
2022-11-06T04:24:28.147Z,71.76078
2022-11-06T04:29:29.956Z,70.52966
2022-11-06T04:34:31.666Z,71.16583
2022-11-06T04:39:33.365Z,71.67654
2022-11-06T04:44:35.127Z,75.52922
2022-11-06T04:49:36.735Z,76.4134
2022-11-06T04:54:38.421Z,78.20942
2022-11-06T04:59:40.133Z,77.63217
2022-11-06T05:04:41.843Z,75.68695
2022-11-06T05:09:43.469Z,74.67282
2022-11-06T05:14:45.184Z,73.4261
2022-11-06T05:19:46.920Z,75.5341
2022-11-06T05:24:48.582Z,74.18679
2022-11-06T05:29:50.286Z,70.04586
2022-11-06T05:34:51.932Z,69.73582
2022-11-06T05:39:53.554Z,67.48578
2022-11-06T05:44:55.328Z,72.22318
2022-11-06T05:49:56.973Z,69.8316
2022-11-06T05:54:58.601Z,73.0745
2022-11-06T06:00:00.272Z,79.19084
2022-11-06T06:05:01.929Z,78.40367
2022-11-06T06:10:03.603Z,73.67153
2022-11-06T06:15:05.217Z,70.82494
2022-11-06T06:20:06.899Z,75.45834
2022-11-06T06:25:14.652Z,73.4108
2022-11-06T06:30:23.064Z,71.49832
2022-11-06T06:35:24.836Z,70.45575
2022-11-06T06:40:26.725Z,68.9659
2022-11-06T06:45:28.354Z,69.31586
2022-11-06T06:50:30.051Z,68.29031
2022-11-06T06:55:31.713Z,71.10674
2022-11-06T07:00:33.373Z,69.48108
2022-11-06T07:05:35.040Z,70.53497
2022-11-06T07:10:36.852Z,72.49568
2022-11-06T07:15:38.486Z,75.11196
2022-11-06T07:20:40.117Z,75.22464
2022-11-06T07:25:41.728Z,74.58593
2022-11-06T07:30:43.524Z,69.91268
2022-11-06T07:35:45.194Z,68.79653
2022-11-06T07:40:46.824Z,71.11327
2022-11-06T07:45:48.592Z,69.91547
2022-11-06T07:50:50.260Z,69.21852
2022-11-06T07:55:51.906Z,73.50274
2022-11-06T08:00:53.834Z,75.86941
2022-11-06T08:05:55.539Z,75.24852
2022-11-06T08:10:57.424Z,72.96051
2022-11-06T08:15:59.217Z,75.37278
2022-11-06T08:21:00.972Z,75.6355
2022-11-06T08:26:02.824Z,72.92303
2022-11-06T08:31:04.402Z,69.7207
2022-11-06T08:36:06.072Z,70.53709
2022-11-06T08:41:07.741Z,71.75379
2022-11-06T08:46:09.370Z,68.43453
2022-11-06T08:51:11.153Z,71.63142
2022-11-06T08:56:12.858Z,73.80284
2022-11-06T09:01:14.610Z,70.04926
2022-11-06T09:06:16.477Z,69.80888
2022-11-06T09:11:18.074Z,70.45996
2022-11-06T09:16:19.674Z,75.14688
2022-11-06T09:21:21.337Z,73.37975
2022-11-06T09:26:23.226Z,70.11597
2022-11-06T09:31:24.874Z,74.91646
2022-11-06T09:36:26.532Z,70.82772
2022-11-06T09:41:28.233Z,69.83685
2022-11-06T09:46:29.869Z,70.05298
2022-11-06T09:51:31.614Z,74.34409
2022-11-06T09:56:33.560Z,71.51142
2022-11-06T10:01:35.561Z,69.81532
2022-11-06T10:06:37.423Z,70.16577
2022-11-06T10:11:39.169Z,68.99221
2022-11-06T10:16:40.824Z,69.25485
2022-11-06T10:21:42.471Z,67.99331
2022-11-06T10:26:44.197Z,68.83537
2022-11-06T10:31:45.893Z,70.09151
2022-11-06T10:36:50.089Z,68.36394
2022-11-06T10:41:52.184Z,71.77118
2022-11-06T10:46:53.822Z,73.13074
2022-11-06T10:51:55.482Z,72.62047
2022-11-06T10:56:57.077Z,75.69478
2022-11-06T11:01:59.027Z,76.5118
2022-11-06T11:07:00.782Z,78.7297
2022-11-06T11:12:02.458Z,73.95281
2022-11-06T11:17:04.131Z,73.53067
2022-11-06T11:22:05.729Z,76.08012
2022-11-06T11:27:07.353Z,76.92663
2022-11-06T11:32:08.990Z,78.26728
2022-11-06T11:37:10.672Z,76.18583
2022-11-06T11:42:12.319Z,74.19272
2022-11-06T11:47:14.251Z,74.38232
2022-11-06T11:52:16.042Z,71.75465
2022-11-06T11:57:17.771Z,71.21497
2022-11-06T12:02:25.316Z,68.45034
2022-11-06T12:07:28.752Z,66.27805
2022-11-06T12:12:30.401Z,66.03396
2022-11-06T12:17:32.113Z,68.9967
2022-11-06T12:22:33.758Z,66.95201
2022-11-06T12:27:35.541Z,65.84641
2022-11-06T12:32:37.222Z,68.43805
2022-11-06T12:37:38.840Z,68.38526
2022-11-06T12:42:40.466Z,72.18085
2022-11-06T12:47:42.141Z,68.98844
2022-11-06T12:52:43.759Z,67.04521
2022-11-06T12:57:45.392Z,66.60171
2022-11-06T13:02:47.033Z,69.26134
2022-11-06T13:07:48.601Z,68.4548
2022-11-06T13:12:50.226Z,66.69343
2022-11-06T13:17:51.930Z,66.60416
2022-11-06T13:22:53.735Z,68.01888
2022-11-06T13:27:55.365Z,69.17521
2022-11-06T13:32:57.059Z,66.48982
2022-11-06T13:37:58.720Z,66.18352
2022-11-06T13:43:00.317Z,66.9259
2022-11-06T13:48:01.977Z,67.20818
2022-11-06T13:53:03.611Z,68.75424
2022-11-06T13:58:05.279Z,68.07727
2022-11-06T14:03:07.174Z,68.64784
2022-11-06T14:08:08.816Z,66.19114
2022-11-06T14:13:10.498Z,65.11319
2022-11-06T14:18:12.392Z,66.09765
2022-11-06T14:23:14.286Z,67.88108
2022-11-06T14:28:16.204Z,67.8316
2022-11-06T14:33:17.931Z,68.2895
2022-11-06T14:38:19.563Z,66.73079
2022-11-06T14:43:22.230Z,64.47171
2022-11-06T14:48:24.396Z,64.87399
2022-11-06T14:53:26.609Z,66.97144
2022-11-06T14:58:28.354Z,64.72897
2022-11-06T15:03:29.973Z,63.32665
2022-11-06T15:08:31.687Z,64.82599
2022-11-06T15:13:33.343Z,67.25683
2022-11-06T15:18:34.970Z,67.01707
2022-11-06T15:23:36.714Z,66.8206
2022-11-06T15:28:38.380Z,65.67255
2022-11-06T15:33:43.895Z,65.6603
2022-11-06T15:38:45.688Z,65.46013
2022-11-06T15:43:47.481Z,64.99329
2022-11-06T15:48:49.956Z,68.77666
2022-11-06T15:53:51.685Z,67.05313
2022-11-06T15:58:53.332Z,66.18083
2022-11-06T16:03:55.138Z,67.27858
2022-11-06T16:08:56.791Z,65.9967
2022-11-06T16:13:58.509Z,69.12034
2022-11-06T16:19:00.115Z,68.09313
2022-11-06T16:24:01.795Z,66.95266
2022-11-06T16:29:03.604Z,68.54443
2022-11-06T16:34:05.352Z,68.41012
2022-11-06T16:39:07.000Z,66.89287
2022-11-06T16:44:08.661Z,68.38673
2022-11-06T16:49:10.286Z,66.89296
2022-11-06T16:54:11.903Z,65.00502
2022-11-06T16:59:13.964Z,63.92897
2022-11-06T17:04:15.779Z,62.89478
2022-11-06T17:09:17.447Z,63.19026
2022-11-06T17:14:19.083Z,67.56519
2022-11-06T17:19:20.889Z,63.89267
2022-11-06T17:24:36.534Z,66.43918
2022-11-06T17:29:39.183Z,62.69958
2022-11-06T17:34:41.063Z,65.67407
2022-11-06T17:39:42.701Z,64.72701
2022-11-06T17:44:44.391Z,63.07595
2022-11-06T17:49:46.043Z,63.40272
2022-11-06T17:54:47.774Z,60.51884
2022-11-06T17:59:49.548Z,64.28189
2022-11-06T18:04:51.154Z,66.9206
2022-11-06T18:09:53.064Z,66.37929
2022-11-06T18:14:54.749Z,66.21233
2022-11-06T18:19:56.369Z,65.77684
2022-11-06T18:24:58.051Z,63.13315
2022-11-06T18:29:59.763Z,61.75358
2022-11-06T18:35:01.391Z,61.5062
2022-11-06T18:40:03.192Z,62.55964
2022-11-06T18:45:04.896Z,60.36388
2022-11-06T18:50:06.557Z,65.75398
2022-11-06T18:55:08.266Z,64.91083
2022-11-06T19:00:10.025Z,63.30539
2022-11-06T19:05:11.719Z,62.88585
2022-11-06T19:10:13.303Z,67.24702
2022-11-06T19:15:14.990Z,61.34654
2022-11-06T19:20:16.685Z,62.19144
2022-11-06T19:25:18.435Z,65.13851
2022-11-06T19:30:20.170Z,64.61527
2022-11-06T19:35:21.786Z,64.75991
2022-11-06T19:40:23.440Z,62.81151
2022-11-06T19:45:25.157Z,63.64149
2022-11-06T19:50:53.625Z,64.6915
2022-11-06T19:56:00.744Z,63.72181
2022-11-06T20:01:04.895Z,64.59948
2022-11-06T20:06:08.172Z,61.20895
2022-11-06T20:11:10.304Z,64.32992
2022-11-06T20:16:11.929Z,64.06696
2022-11-06T20:21:13.527Z,61.22818
2022-11-06T20:26:15.133Z,62.91605
2022-11-06T20:31:16.788Z,62.45399
2022-11-06T20:36:18.593Z,61.08965
2022-11-06T20:41:20.215Z,62.58516
2022-11-06T20:46:21.902Z,64.27351
2022-11-06T20:51:23.630Z,63.1286
2022-11-06T20:56:25.530Z,64.27796
2022-11-06T21:01:27.563Z,63.90889
2022-11-06T21:06:29.378Z,63.13462
2022-11-06T21:11:31.105Z,62.82163
2022-11-06T21:16:32.826Z,65.72911
2022-11-06T21:21:34.474Z,66.01885
2022-11-06T21:26:36.160Z,64.34253
2022-11-06T21:31:37.788Z,68.04655
2022-11-06T21:36:39.470Z,70.06081
2022-11-06T21:41:41.342Z,68.06008
2022-11-06T21:46:45.666Z,66.78475
2022-11-06T21:51:47.891Z,65.55104
2022-11-06T21:56:49.686Z,65.96211
2022-11-06T22:01:51.482Z,65.02171
2022-11-06T22:06:53.347Z,62.99534
2022-11-06T22:11:55.444Z,62.38444
2022-11-06T22:16:57.034Z,59.17612
2022-11-06T22:21:58.745Z,61.09594
2022-11-06T22:27:00.433Z,63.55113
2022-11-06T22:32:02.221Z,65.96785
2022-11-06T22:37:03.818Z,65.64065
2022-11-06T22:42:05.575Z,68.05215
2022-11-06T22:47:07.596Z,65.79129
2022-11-06T22:52:09.235Z,63.11079
2022-11-06T22:57:10.866Z,64.87783
2022-11-06T23:02:12.538Z,65.20885
2022-11-06T23:07:14.262Z,65.71072
2022-11-06T23:12:15.938Z,66.13263
2022-11-06T23:17:17.569Z,63.68572
2022-11-06T23:22:19.198Z,61.80886
2022-11-06T23:27:20.810Z,64.91155
2022-11-06T23:32:22.539Z,63.37542
2022-11-06T23:37:24.151Z,64.49121
2022-11-06T23:42:25.774Z,64.7596
2022-11-06T23:47:27.510Z,65.41434
2022-11-06T23:52:29.080Z,61.66029
2022-11-06T23:57:30.712Z,59.57824
